createdAt,value
2022-11-25T00:01:31.719Z,74.89
2022-11-25T00:04:01.294Z,75.35
2022-11-25T00:06:33.489Z,75.88
2022-11-25T00:09:03.509Z,76.19
2022-11-25T00:11:32.344Z,76.01
2022-11-25T00:14:00.514Z,76.41
2022-11-25T00:16:28.789Z,76.61
2022-11-25T00:18:58.904Z,77.16
2022-11-25T00:21:28.792Z,77.28
2022-11-25T00:24:00.432Z,77.52
2022-11-25T00:26:32.605Z,77.94
2022-11-25T00:29:02.459Z,78.52
2022-11-25T00:31:33.523Z,78.93
2022-11-25T00:34:02.340Z,79.16
2022-11-25T00:36:33.004Z,79.44
2022-11-25T00:39:06.831Z,79.61
2022-11-25T00:41:52.984Z,79.95
2022-11-25T00:44:39.005Z,80.22
2022-11-25T00:47:09.769Z,80.18
2022-11-25T00:49:39.359Z,79.98
2022-11-25T00:52:07.964Z,80.27
2022-11-25T00:54:37.999Z,80.25
2022-11-25T00:57:06.553Z,80.48
2022-11-25T00:59:34.735Z,80.97
2022-11-25T01:02:03.378Z,81.00
2022-11-25T01:04:31.682Z,81.01
2022-11-25T01:07:00.733Z,80.43
2022-11-25T01:09:29.699Z,80.61
2022-11-25T01:11:59.544Z,80.60
2022-11-25T01:14:27.987Z,80.69
2022-11-25T01:16:56.309Z,80.94
2022-11-25T01:19:25.468Z,80.98
2022-11-25T01:21:53.648Z,81.15
2022-11-25T01:24:23.914Z,81.20
2022-11-25T01:26:56.791Z,80.92
2022-11-25T01:29:26.677Z,81.00
2022-11-25T01:31:57.402Z,81.04
2022-11-25T01:34:28.205Z,81.15
2022-11-25T01:36:58.501Z,81.12
2022-11-25T01:39:32.487Z,81.14
2022-11-25T01:42:01.890Z,81.31
2022-11-25T01:44:33.105Z,81.42
2022-11-25T01:47:06.604Z,81.72
2022-11-25T01:49:41.252Z,81.10
2022-11-25T01:52:17.919Z,80.86
2022-11-25T01:54:51.951Z,80.28
2022-11-25T01:57:24.880Z,80.22
2022-11-25T01:59:58.999Z,79.94
2022-11-25T02:02:27.623Z,79.80
2022-11-25T02:04:56.240Z,79.95
2022-11-25T02:07:32.182Z,80.13
2022-11-25T02:10:02.726Z,80.30
2022-11-25T02:12:32.205Z,80.40
2022-11-25T02:15:02.389Z,80.24
2022-11-25T02:17:30.932Z,80.18
2022-11-25T02:20:04.486Z,80.52
2022-11-25T02:22:48.127Z,80.43
2022-11-25T02:25:21.064Z,80.76
2022-11-25T02:27:53.954Z,80.66
2022-11-25T02:30:22.500Z,81.33
2022-11-25T02:32:51.426Z,81.40
2022-11-25T02:35:28.762Z,81.47
2022-11-25T02:38:02.238Z,81.91
2022-11-25T02:40:33.201Z,82.18
2022-11-25T02:43:02.048Z,81.71
2022-11-25T02:45:41.043Z,82.08
2022-11-25T02:48:10.371Z,82.00
2022-11-25T02:50:38.792Z,81.98
2022-11-25T02:53:08.290Z,81.87
2022-11-25T02:55:39.462Z,81.66
2022-11-25T02:58:08.537Z,80.77
2022-11-25T03:00:36.814Z,80.74
2022-11-25T03:03:05.621Z,80.35
2022-11-25T03:05:34.531Z,80.08
2022-11-25T03:08:02.876Z,79.71
2022-11-25T03:10:31.653Z,79.80
2022-11-25T03:13:03.281Z,79.86
2022-11-25T03:15:31.572Z,79.82
2022-11-25T03:18:05.144Z,79.63
2022-11-25T03:20:33.820Z,79.80
2022-11-25T03:23:05.434Z,79.92
2022-11-25T03:25:35.743Z,79.87
2022-11-25T03:28:06.225Z,79.75
2022-11-25T03:30:34.776Z,79.85
2022-11-25T03:33:04.732Z,79.75
2022-11-25T03:35:33.007Z,79.74
2022-11-25T03:38:01.253Z,79.59
2022-11-25T03:40:29.557Z,79.80
2022-11-25T03:42:57.732Z,79.53
2022-11-25T03:45:27.807Z,79.57
2022-11-25T03:47:58.632Z,79.84
2022-11-25T03:50:27.627Z,79.72
2022-11-25T03:52:56.008Z,79.68
2022-11-25T03:55:24.457Z,80.02
2022-11-25T03:57:52.704Z,80.10
2022-11-25T04:00:21.468Z,80.30
2022-11-25T04:03:01.324Z,80.18
2022-11-25T04:05:31.601Z,80.15
2022-11-25T04:08:03.830Z,80.44
2022-11-25T04:10:33.870Z,80.72
2022-11-25T04:13:01.211Z,80.62
2022-11-25T04:15:39.599Z,80.75
2022-11-25T04:18:09.754Z,80.72
2022-11-25T04:20:37.977Z,80.47
2022-11-25T04:23:08.959Z,80.43
2022-11-25T04:25:44.204Z,80.51
2022-11-25T04:28:23.169Z,80.49
2022-11-25T04:30:51.447Z,80.18
2022-11-25T04:33:21.052Z,80.07
2022-11-25T04:35:49.609Z,80.17
2022-11-25T04:38:18.182Z,80.11
2022-11-25T04:40:46.733Z,80.00
2022-11-25T04:43:18.411Z,80.02
2022-11-25T04:46:12.950Z,80.22
2022-11-25T04:48:42.059Z,80.21
2022-11-25T04:51:10.879Z,80.74
2022-11-25T04:53:39.109Z,80.97
2022-11-25T04:56:09.273Z,80.55
2022-11-25T04:59:01.224Z,80.70
2022-11-25T05:01:29.955Z,80.85
2022-11-25T05:04:08.999Z,81.09
2022-11-25T05:06:37.970Z,81.10
2022-11-25T05:09:07.573Z,81.16
2022-11-25T05:11:38.372Z,81.20
2022-11-25T05:14:07.041Z,81.13
2022-11-25T05:16:35.414Z,81.02
2022-11-25T05:19:04.491Z,81.08
2022-11-25T05:21:34.543Z,80.99
2022-11-25T05:24:03.137Z,81.10
2022-11-25T05:26:32.389Z,81.02
2022-11-25T05:29:01.965Z,81.12
2022-11-25T05:31:32.753Z,81.06
2022-11-25T05:34:02.218Z,80.70
2022-11-25T05:36:33.601Z,80.94
2022-11-25T05:39:02.148Z,80.77
2022-11-25T05:41:49.490Z,81.15
2022-11-25T05:44:22.714Z,81.05
2022-11-25T05:46:53.517Z,81.17
2022-11-25T05:49:22.224Z,81.02
2022-11-25T05:51:53.407Z,80.99
2022-11-25T05:54:23.716Z,81.06
2022-11-25T05:56:51.968Z,81.17
2022-11-25T05:59:28.935Z,81.14
2022-11-25T06:02:07.724Z,81.11
2022-11-25T06:04:36.659Z,80.95
2022-11-25T06:07:07.500Z,81.37
2022-11-25T06:09:36.246Z,81.54
2022-11-25T06:12:04.594Z,81.33
2022-11-25T06:14:36.415Z,81.17
2022-11-25T06:17:05.474Z,81.02
2022-11-25T06:19:38.445Z,80.90
2022-11-25T06:22:08.968Z,81.11
2022-11-25T06:24:37.474Z,81.02
2022-11-25T06:27:08.593Z,80.69
2022-11-25T06:29:37.801Z,80.71
2022-11-25T06:32:06.253Z,80.36
2022-11-25T06:34:49.410Z,79.95
2022-11-25T06:37:34.729Z,79.97
2022-11-25T06:40:03.125Z,80.13
2022-11-25T06:42:31.612Z,79.91
2022-11-25T06:44:59.839Z,79.63
2022-11-25T06:47:28.030Z,79.58
2022-11-25T06:49:56.221Z,79.95
2022-11-25T06:52:24.478Z,79.94
2022-11-25T06:54:54.144Z,79.82
2022-11-25T06:57:22.358Z,79.89
2022-11-25T06:59:51.400Z,79.82
2022-11-25T07:02:19.632Z,80.27
2022-11-25T07:04:47.942Z,80.39
2022-11-25T07:07:16.972Z,80.27
2022-11-25T07:09:45.229Z,80.20
2022-11-25T07:12:14.933Z,80.27
2022-11-25T07:14:43.409Z,80.10
2022-11-25T07:17:12.444Z,80.35
2022-11-25T07:19:40.903Z,80.35
2022-11-25T07:22:09.245Z,80.68
2022-11-25T07:24:37.679Z,80.35
2022-11-25T07:27:07.037Z,80.41
2022-11-25T07:29:57.997Z,80.15
2022-11-25T07:32:25.539Z,80.31
2022-11-25T07:34:55.019Z,80.01
2022-11-25T07:37:23.290Z,80.51
2022-11-25T07:39:51.804Z,80.22
2022-11-25T07:42:20.067Z,80.53
2022-11-25T07:44:50.099Z,80.75
2022-11-25T07:47:41.732Z,80.67
2022-11-25T07:50:10.899Z,80.68
2022-11-25T07:52:40.265Z,80.63
2022-11-25T07:55:09.337Z,80.66
2022-11-25T07:57:37.608Z,80.48
2022-11-25T08:00:08.978Z,80.83
2022-11-25T08:02:40.103Z,80.51
2022-11-25T08:05:09.383Z,80.64
2022-11-25T08:07:37.598Z,80.59
2022-11-25T08:10:06.499Z,80.55
2022-11-25T08:12:34.977Z,80.63
2022-11-25T08:15:03.262Z,81.00
2022-11-25T08:17:32.994Z,80.60
2022-11-25T08:20:01.279Z,80.49
2022-11-25T08:22:29.743Z,80.18
2022-11-25T08:24:58.048Z,79.78
2022-11-25T08:27:26.285Z,79.03
2022-11-25T08:29:54.969Z,78.14
2022-11-25T08:32:23.204Z,77.12
2022-11-25T08:34:52.862Z,76.23
2022-11-25T08:37:21.263Z,76.11
2022-11-25T08:39:53.280Z,76.20
2022-11-25T08:42:21.779Z,76.66
2022-11-25T08:44:53.976Z,76.87
2022-11-25T08:47:22.650Z,77.23
2022-11-25T08:49:54.173Z,77.03
2022-11-25T08:52:23.028Z,77.22
2022-11-25T08:54:51.654Z,77.51
2022-11-25T08:57:20.140Z,77.58
2022-11-25T08:59:48.332Z,78.70
2022-11-25T09:02:18.370Z,78.60
2022-11-25T09:04:46.776Z,76.80
2022-11-25T09:07:16.798Z,74.33
2022-11-25T09:09:45.173Z,72.20
2022-11-25T09:12:13.501Z,70.17
2022-11-25T09:14:41.734Z,68.47
2022-11-25T09:17:11.580Z,67.22
2022-11-25T09:19:40.469Z,66.15
2022-11-25T09:22:09.028Z,64.52
2022-11-25T09:24:38.730Z,60.52
2022-11-25T09:27:06.932Z,60.92
2022-11-25T09:29:35.583Z,59.79
2022-11-25T09:32:04.153Z,58.74
2022-11-25T09:34:32.377Z,58.74
2022-11-25T09:37:00.569Z,59.28
2022-11-25T09:39:31.079Z,60.66
2022-11-25T09:42:34.830Z,61.12
2022-11-25T09:45:28.804Z,63.39
2022-11-25T09:48:11.123Z,63.66
2022-11-25T09:50:49.997Z,65.16
2022-11-25T09:53:27.043Z,65.62
2022-11-25T09:56:01.652Z,65.57
2022-11-25T09:58:37.179Z,64.63
2022-11-25T10:01:08.139Z,63.37
2022-11-25T10:03:42.575Z,62.09
2022-11-25T10:06:17.397Z,60.15
2022-11-25T10:08:49.327Z,59.42
2022-11-25T10:11:27.646Z,57.78
2022-11-25T10:14:02.199Z,57.44
2022-11-25T10:16:37.072Z,55.07
2022-11-25T10:19:17.052Z,54.94
2022-11-25T10:21:46.457Z,54.72
2022-11-25T10:24:17.833Z,54.28
2022-11-25T10:26:48.996Z,54.78
2022-11-25T10:29:25.717Z,56.36
2022-11-25T10:32:06.348Z,58.08
2022-11-25T10:34:40.593Z,60.59
2022-11-25T10:37:19.621Z,60.77
2022-11-25T10:39:47.952Z,59.65
2022-11-25T10:42:20.004Z,58.68
2022-11-25T10:44:49.868Z,57.91
2022-11-25T10:47:35.850Z,57.56
2022-11-25T10:50:17.369Z,58.10
2022-11-25T10:52:52.624Z,59.44
2022-11-25T10:55:24.322Z,60.23
2022-11-25T10:57:52.787Z,59.38
2022-11-25T11:00:37.558Z,60.47
2022-11-25T11:03:16.161Z,61.34
2022-11-25T11:05:50.156Z,62.18
2022-11-25T11:08:22.407Z,62.99
2022-11-25T11:11:10.130Z,63.96
2022-11-25T11:13:39.012Z,64.15
2022-11-25T11:16:25.092Z,64.88
2022-11-25T11:18:53.840Z,65.60
2022-11-25T11:21:30.099Z,65.52
2022-11-25T11:23:59.830Z,66.00
2022-11-25T11:26:32.370Z,66.24
2022-11-25T11:29:04.052Z,66.47
2022-11-25T11:31:40.384Z,66.01
2022-11-25T11:34:23.699Z,66.31
2022-11-25T11:37:06.086Z,66.27
2022-11-25T11:40:01.151Z,66.57
2022-11-25T11:42:37.402Z,66.69
2022-11-25T11:45:23.836Z,66.79
2022-11-25T11:48:05.567Z,66.76
2022-11-25T11:50:37.192Z,66.99
2022-11-25T11:53:12.502Z,66.39
2022-11-25T11:56:33.061Z,67.02
2022-11-25T11:59:02.265Z,66.90
2022-11-25T12:01:46.783Z,66.46
2022-11-25T12:04:22.221Z,65.97
2022-11-25T12:07:01.917Z,65.75
2022-11-25T12:09:33.337Z,65.59
2022-11-25T12:12:06.624Z,65.90
2022-11-25T12:14:41.250Z,65.72
2022-11-25T12:17:17.394Z,65.66
2022-11-25T12:19:56.451Z,65.06
2022-11-25T12:22:30.853Z,65.50
2022-11-25T12:25:05.703Z,65.50
2022-11-25T12:27:37.669Z,65.80
2022-11-25T12:30:13.187Z,65.43
2022-11-25T12:32:58.373Z,65.66
2022-11-25T12:35:41.075Z,65.79
2022-11-25T12:38:21.055Z,65.36
2022-11-25T12:40:54.847Z,65.28
2022-11-25T12:43:33.524Z,65.47
2022-11-25T12:46:09.240Z,65.99
2022-11-25T12:48:41.718Z,66.26
2022-11-25T12:51:22.774Z,64.45
2022-11-25T12:54:04.559Z,63.23
2022-11-25T12:56:50.073Z,63.59
2022-11-25T12:59:44.949Z,63.69
2022-11-25T13:02:59.661Z,63.88
2022-11-25T13:06:18.389Z,64.52
2022-11-25T13:08:58.320Z,64.04
2022-11-25T13:11:49.067Z,64.37
2022-11-25T13:14:27.519Z,64.88
2022-11-25T13:16:57.834Z,65.46
2022-11-25T13:19:26.708Z,65.19
2022-11-25T13:22:00.478Z,64.54
2022-11-25T13:24:33.754Z,64.55
2022-11-25T13:27:02.674Z,64.44
2022-11-25T13:29:57.838Z,64.53
2022-11-25T13:32:30.387Z,64.65
2022-11-25T13:35:41.260Z,64.75
2022-11-25T13:38:27.662Z,65.57
2022-11-25T13:41:01.724Z,65.23
2022-11-25T13:43:30.428Z,65.42
2022-11-25T13:45:58.987Z,66.03
2022-11-25T13:48:30.083Z,65.51
2022-11-25T13:51:18.579Z,65.84
2022-11-25T13:53:54.380Z,65.84
2022-11-25T13:56:30.942Z,65.85
2022-11-25T13:59:21.249Z,65.71
2022-11-25T14:01:55.981Z,65.92
2022-11-25T14:04:41.648Z,65.63
2022-11-25T14:07:22.098Z,65.00
2022-11-25T14:10:27.677Z,64.28
2022-11-25T14:13:35.830Z,64.33
2022-11-25T14:16:23.116Z,64.62
2022-11-25T14:19:49.457Z,64.11
2022-11-25T14:22:20.331Z,64.81
2022-11-25T14:24:51.628Z,64.78
2022-11-25T14:27:23.660Z,64.93
2022-11-25T14:29:55.597Z,64.66
2022-11-25T14:32:30.173Z,65.02
2022-11-25T14:35:04.857Z,65.28
2022-11-25T14:37:40.756Z,65.46
2022-11-25T14:40:15.784Z,65.82
2022-11-25T14:42:47.689Z,66.09
2022-11-25T14:45:26.519Z,66.37
2022-11-25T14:47:54.884Z,66.85
2022-11-25T14:50:34.711Z,66.75
2022-11-25T14:53:07.887Z,67.08
2022-11-25T14:55:37.297Z,67.64
2022-11-25T14:58:05.608Z,67.98
2022-11-25T15:00:36.250Z,67.45
2022-11-25T15:03:06.650Z,67.93
2022-11-25T15:05:36.412Z,68.14
2022-11-25T15:08:12.084Z,67.62
2022-11-25T15:10:45.231Z,67.16
2022-11-25T15:13:22.813Z,67.26
2022-11-25T15:15:53.740Z,66.87
2022-11-25T15:18:25.053Z,67.07
2022-11-25T15:20:59.201Z,67.17
2022-11-25T15:23:32.112Z,67.12
2022-11-25T15:26:01.291Z,67.38
2022-11-25T15:28:35.894Z,67.61
2022-11-25T15:31:12.652Z,67.88
2022-11-25T15:33:42.467Z,68.03
2022-11-25T15:36:10.825Z,68.51
2022-11-25T15:38:42.413Z,69.00
2022-11-25T15:41:20.761Z,69.07
2022-11-25T15:43:51.660Z,69.07
2022-11-25T15:46:22.329Z,69.15
2022-11-25T15:48:52.785Z,69.32
2022-11-25T15:51:35.266Z,69.50
2022-11-25T15:54:07.772Z,69.66
2022-11-25T15:56:40.103Z,69.81
2022-11-25T15:59:56.112Z,70.10
2022-11-25T16:02:37.859Z,70.75
2022-11-25T16:05:25.173Z,70.35
2022-11-25T16:08:03.193Z,70.88
2022-11-25T16:10:35.104Z,71.09
2022-11-25T16:13:29.206Z,71.41
2022-11-25T16:16:01.915Z,71.10
2022-11-25T16:18:40.998Z,71.56
2022-11-25T16:21:12.580Z,71.75
2022-11-25T16:23:45.011Z,72.12
2022-11-25T16:26:17.871Z,72.41
2022-11-25T16:28:53.714Z,71.95
2022-11-25T16:31:22.290Z,72.35
2022-11-25T16:33:54.096Z,72.38
2022-11-25T16:36:22.438Z,72.56
2022-11-25T16:38:54.698Z,72.86
2022-11-25T16:41:25.397Z,73.12
2022-11-25T16:43:58.398Z,72.98
2022-11-25T16:46:28.467Z,73.24
2022-11-25T16:48:58.141Z,73.20
2022-11-25T16:51:26.848Z,73.02
2022-11-25T16:53:55.079Z,73.17
2022-11-25T16:56:28.095Z,72.99
2022-11-25T16:58:56.829Z,73.42
2022-11-25T17:01:28.605Z,73.18
2022-11-25T17:03:58.772Z,73.50
2022-11-25T17:06:30.040Z,73.79
2022-11-25T17:08:58.490Z,73.93
2022-11-25T17:11:30.529Z,73.52
2022-11-25T17:14:02.433Z,73.84
2022-11-25T17:16:32.033Z,74.19
2022-11-25T17:19:03.163Z,74.11
2022-11-25T17:21:31.772Z,74.56
2022-11-25T17:24:03.253Z,74.52
2022-11-25T17:26:39.483Z,74.76
2022-11-25T17:29:13.165Z,75.56
2022-11-25T17:31:42.962Z,75.70
2022-11-25T17:34:17.004Z,75.76
2022-11-25T17:36:46.350Z,75.72
2022-11-25T17:39:15.596Z,75.83
2022-11-25T17:41:48.618Z,76.14
2022-11-25T17:44:25.890Z,76.24
2022-11-25T17:46:54.815Z,76.13
2022-11-25T17:49:25.556Z,76.14
2022-11-25T17:51:54.882Z,76.81
2022-11-25T17:54:23.100Z,76.81
2022-11-25T17:56:52.700Z,76.90
2022-11-25T17:59:26.546Z,76.63
2022-11-25T18:01:56.086Z,76.55
2022-11-25T18:04:27.426Z,76.93
2022-11-25T18:06:55.901Z,77.11
2022-11-25T18:09:24.343Z,77.10
2022-11-25T18:11:55.086Z,76.92
2022-11-25T18:14:28.445Z,76.52
2022-11-25T18:16:57.556Z,76.62
2022-11-25T18:19:27.388Z,76.49
2022-11-25T18:22:01.096Z,76.32
2022-11-25T18:24:29.509Z,76.59
2022-11-25T18:26:58.440Z,76.25
2022-11-25T18:29:29.250Z,76.37
2022-11-25T18:31:59.592Z,76.03
2022-11-25T18:34:29.284Z,76.35
2022-11-25T18:36:57.460Z,76.10
2022-11-25T18:39:25.727Z,75.96
2022-11-25T18:41:58.250Z,76.23
2022-11-25T18:44:27.479Z,76.53
2022-11-25T18:46:55.886Z,76.33
2022-11-25T18:49:25.872Z,76.18
2022-11-25T18:51:56.228Z,76.07
2022-11-25T18:54:24.375Z,76.02
2022-11-25T18:56:53.044Z,76.06
2022-11-25T18:59:27.860Z,75.80
2022-11-25T19:01:56.286Z,76.01
2022-11-25T19:04:24.572Z,76.00
2022-11-25T19:06:55.428Z,75.86
2022-11-25T19:09:23.753Z,75.90
2022-11-25T19:11:55.519Z,76.07
2022-11-25T19:14:31.177Z,75.97
2022-11-25T19:17:03.270Z,75.82
2022-11-25T19:19:31.655Z,75.78
2022-11-25T19:22:01.839Z,76.05
2022-11-25T19:24:30.372Z,75.79
2022-11-25T19:26:58.840Z,75.47
2022-11-25T19:29:37.476Z,75.43
2022-11-25T19:32:18.440Z,75.57
2022-11-25T19:34:50.984Z,75.61
2022-11-25T19:37:21.426Z,76.15
2022-11-25T19:39:51.529Z,76.00
2022-11-25T19:42:20.084Z,76.19
2022-11-25T19:44:48.651Z,76.19
2022-11-25T19:47:20.462Z,76.07
2022-11-25T19:49:49.360Z,75.98
2022-11-25T19:52:19.495Z,76.13
2022-11-25T19:54:50.418Z,75.97
2022-11-25T19:57:20.809Z,76.33
2022-11-25T19:59:49.104Z,76.55
2022-11-25T20:02:21.389Z,76.65
2022-11-25T20:04:52.764Z,76.64
2022-11-25T20:07:22.385Z,76.67
2022-11-25T20:09:52.332Z,76.28
2022-11-25T20:12:24.292Z,76.23
2022-11-25T20:14:53.811Z,76.32
2022-11-25T20:17:28.962Z,76.36
2022-11-25T20:20:00.089Z,76.45
2022-11-25T20:22:32.275Z,76.49
2022-11-25T20:25:03.753Z,76.58
2022-11-25T20:27:32.000Z,76.64
2022-11-25T20:30:00.265Z,76.70
2022-11-25T20:32:30.312Z,76.65
2022-11-25T20:34:59.608Z,76.37
2022-11-25T20:37:40.367Z,76.78
2022-11-25T20:40:17.636Z,76.66
2022-11-25T20:42:45.922Z,76.67
2022-11-25T20:45:16.477Z,76.46
2022-11-25T20:47:45.038Z,76.95
2022-11-25T20:50:15.027Z,76.94
2022-11-25T20:52:44.576Z,76.77
2022-11-25T20:55:20.340Z,76.81
2022-11-25T20:57:49.890Z,76.87
2022-11-25T21:00:21.695Z,77.15
2022-11-25T21:02:50.747Z,76.70
2022-11-25T21:05:19.526Z,76.76
2022-11-25T21:07:49.761Z,76.66
2022-11-25T21:10:28.315Z,76.77
2022-11-25T21:12:57.559Z,76.60
2022-11-25T21:15:27.531Z,76.81
2022-11-25T21:17:57.652Z,76.86
2022-11-25T21:20:25.870Z,76.71
2022-11-25T21:22:58.029Z,76.75
2022-11-25T21:25:27.867Z,76.75
2022-11-25T21:27:56.051Z,76.76
2022-11-25T21:30:26.056Z,76.98
2022-11-25T21:32:56.864Z,76.72
2022-11-25T21:35:31.440Z,76.90
2022-11-25T21:38:04.979Z,76.77
2022-11-25T21:40:38.895Z,76.57
2022-11-25T21:43:11.296Z,76.65
2022-11-25T21:45:39.975Z,76.67
2022-11-25T21:48:17.727Z,77.02
2022-11-25T21:50:46.450Z,76.80
2022-11-25T21:53:15.590Z,76.60
2022-11-25T21:55:45.800Z,76.70
2022-11-25T21:58:18.502Z,76.53
2022-11-25T22:00:51.088Z,76.75
2022-11-25T22:03:21.691Z,76.83
2022-11-25T22:05:50.184Z,76.74
2022-11-25T22:08:18.792Z,76.66
2022-11-25T22:10:51.419Z,76.87
2022-11-25T22:13:21.863Z,76.90
2022-11-25T22:15:53.395Z,76.84
2022-11-25T22:18:30.163Z,76.72
2022-11-25T22:20:58.485Z,76.83
2022-11-25T22:23:27.821Z,76.83
2022-11-25T22:25:58.363Z,76.61
2022-11-25T22:28:29.201Z,77.06
2022-11-25T22:31:01.958Z,77.17
2022-11-25T22:33:33.225Z,77.17
2022-11-25T22:36:02.438Z,77.44
2022-11-25T22:38:31.608Z,77.04
2022-11-25T22:41:04.563Z,77.13
2022-11-25T22:43:36.608Z,77.11
2022-11-25T22:46:06.009Z,76.95
2022-11-25T22:48:36.553Z,77.14
2022-11-25T22:51:05.579Z,77.09
2022-11-25T22:53:33.844Z,77.18
2022-11-25T22:56:03.946Z,77.29
2022-11-25T22:58:32.460Z,77.31
2022-11-25T23:01:00.700Z,77.32
2022-11-25T23:03:30.596Z,77.14
2022-11-25T23:05:59.505Z,77.07
2022-11-25T23:08:29.664Z,77.20
2022-11-25T23:10:58.264Z,77.07
2022-11-25T23:13:28.081Z,77.19
2022-11-25T23:15:59.023Z,77.53
2022-11-25T23:18:34.019Z,77.35
2022-11-25T23:21:05.058Z,77.52
2022-11-25T23:23:33.676Z,77.31
2022-11-25T23:26:01.819Z,77.66
2022-11-25T23:28:31.487Z,77.39
2022-11-25T23:31:02.005Z,77.82
2022-11-25T23:33:34.564Z,77.58
2022-11-25T23:36:06.118Z,78.19
2022-11-25T23:38:38.315Z,78.38
2022-11-25T23:41:06.785Z,78.35
2022-11-25T23:43:36.659Z,78.24
2022-11-25T23:46:05.377Z,78.51
2022-11-25T23:48:35.838Z,78.59
2022-11-25T23:51:04.079Z,78.62
2022-11-25T23:53:34.348Z,78.63
2022-11-25T23:56:02.882Z,78.65
2022-11-25T23:58:31.055Z,78.71
